createdAt,value
2017-09-30T00:00:58.386Z,2.33
2017-09-30T00:03:24.696Z,4.20
2017-09-30T00:05:51.039Z,3.50
2017-09-30T00:08:18.726Z,2.87
2017-09-30T00:10:45.153Z,3.50
2017-09-30T00:13:11.561Z,3.30
2017-09-30T00:15:38.301Z,2.60
2017-09-30T00:18:04.949Z,2.75
2017-09-30T00:20:31.291Z,3.05
2017-09-30T00:22:57.606Z,3.78
2017-09-30T00:25:23.958Z,3.97
2017-09-30T00:27:50.274Z,2.90
2017-09-30T00:30:16.738Z,3.70
2017-09-30T00:32:43.158Z,4.15
2017-09-30T00:35:09.583Z,3.10
2017-09-30T00:37:35.916Z,2.30
2017-09-30T00:40:02.234Z,3.20
2017-09-30T00:42:28.873Z,2.97
2017-09-30T00:44:55.208Z,2.87
2017-09-30T00:47:21.555Z,2.67
2017-09-30T00:49:47.789Z,3.45
2017-09-30T00:52:14.111Z,4.18
2017-09-30T00:54:40.438Z,3.80
2017-09-30T00:57:06.770Z,2.75
2017-09-30T00:59:33.118Z,3.53
2017-09-30T01:01:59.447Z,2.87
2017-09-30T01:04:25.868Z,3.20
2017-09-30T01:06:53.128Z,3.28
2017-09-30T01:09:19.335Z,2.42
2017-09-30T01:11:45.663Z,3.50
2017-09-30T01:14:11.914Z,3.28
2017-09-30T01:16:38.571Z,3.25
2017-09-30T01:19:05.095Z,2.65
2017-09-30T01:21:31.348Z,2.70
2017-09-30T01:23:57.660Z,2.08
2017-09-30T01:26:24.177Z,2.72
2017-09-30T01:28:50.413Z,2.87
2017-09-30T01:31:16.770Z,3.60
2017-09-30T01:33:43.380Z,2.67
2017-09-30T01:36:09.630Z,3.10
2017-09-30T01:38:35.960Z,3.50
2017-09-30T01:41:02.377Z,2.75
2017-09-30T01:43:28.717Z,3.05
2017-09-30T01:45:55.054Z,2.15
2017-09-30T01:48:21.492Z,2.50
2017-09-30T01:50:47.922Z,2.45
2017-09-30T01:53:14.350Z,3.78
2017-09-30T01:55:40.690Z,2.55
2017-09-30T01:58:07.021Z,3.72
2017-09-30T02:00:33.464Z,3.05
2017-09-30T02:02:59.787Z,3.08
2017-09-30T02:05:26.219Z,3.15
2017-09-30T02:07:53.080Z,2.00
2017-09-30T02:10:19.311Z,2.80
2017-09-30T02:12:45.522Z,3.10
2017-09-30T02:15:11.867Z,2.33
2017-09-30T02:17:38.079Z,2.92
2017-09-30T02:20:04.438Z,2.85
2017-09-30T02:22:30.852Z,2.33
2017-09-30T02:24:57.297Z,3.25
2017-09-30T02:27:23.665Z,2.45
2017-09-30T02:29:49.953Z,3.17
2017-09-30T02:32:16.390Z,4.20
2017-09-30T02:34:42.718Z,2.53
2017-09-30T02:37:09.250Z,3.08
2017-09-30T02:39:35.597Z,2.53
2017-09-30T02:42:01.924Z,2.97
2017-09-30T02:44:28.357Z,2.75
2017-09-30T02:46:54.580Z,2.25
2017-09-30T02:49:20.813Z,2.35
2017-09-30T02:51:47.353Z,2.58
2017-09-30T02:54:13.784Z,2.40
2017-09-30T02:56:40.122Z,2.95
2017-09-30T02:59:06.566Z,3.72
2017-09-30T03:01:32.883Z,3.37
2017-09-30T03:03:59.204Z,2.37
2017-09-30T03:06:25.469Z,3.20
2017-09-30T03:08:51.888Z,3.00
2017-09-30T03:11:18.306Z,3.40
2017-09-30T03:13:44.657Z,2.75
2017-09-30T03:16:10.894Z,2.42
2017-09-30T03:18:37.200Z,1.75
2017-09-30T03:21:03.548Z,3.10
2017-09-30T03:23:30.197Z,3.47
2017-09-30T03:25:56.507Z,3.17
2017-09-30T03:28:22.832Z,2.15
2017-09-30T03:30:49.071Z,2.17
2017-09-30T03:33:15.525Z,2.40
2017-09-30T03:35:41.937Z,2.28
2017-09-30T03:38:08.170Z,2.60
2017-09-30T03:40:34.408Z,3.25
2017-09-30T03:43:00.747Z,3.62
2017-09-30T03:45:27.173Z,3.62
2017-09-30T03:47:53.600Z,3.60
2017-09-30T03:50:19.948Z,3.67
2017-09-30T03:52:46.274Z,2.67
2017-09-30T03:55:12.713Z,2.12
2017-09-30T03:57:39.133Z,3.30
2017-09-30T04:00:05.479Z,3.50
2017-09-30T04:02:31.895Z,4.12
2017-09-30T04:04:58.240Z,4.05
2017-09-30T04:07:24.577Z,3.45
2017-09-30T04:09:50.903Z,3.25
2017-09-30T04:12:17.339Z,4.55
2017-09-30T04:14:43.896Z,3.83
2017-09-30T04:17:10.301Z,3.35
2017-09-30T04:19:36.592Z,3.50
2017-09-30T04:22:02.919Z,5.28
2017-09-30T04:24:29.232Z,4.00
2017-09-30T04:26:55.737Z,5.03
2017-09-30T04:29:22.165Z,4.80
2017-09-30T04:31:48.734Z,4.05
2017-09-30T04:34:15.251Z,4.65
2017-09-30T04:36:41.679Z,5.28
2017-09-30T04:39:07.916Z,4.40
2017-09-30T04:41:34.350Z,3.85
2017-09-30T04:44:00.666Z,5.68
2017-09-30T04:46:27.534Z,5.18
2017-09-30T04:48:53.952Z,4.60
2017-09-30T04:51:20.299Z,4.00
2017-09-30T04:53:46.617Z,4.78
2017-09-30T04:56:12.933Z,4.37
2017-09-30T04:58:39.380Z,4.47
2017-09-30T05:01:05.717Z,4.22
2017-09-30T05:03:31.937Z,4.68
2017-09-30T05:05:58.289Z,6.50
2017-09-30T05:08:24.723Z,4.70
2017-09-30T05:10:51.067Z,4.05
2017-09-30T05:13:17.270Z,5.72
2017-09-30T05:15:43.518Z,4.70
2017-09-30T05:18:09.720Z,5.00
2017-09-30T05:20:35.931Z,5.03
2017-09-30T05:23:02.196Z,4.70
2017-09-30T05:25:28.543Z,4.60
2017-09-30T05:27:55.263Z,5.82
2017-09-30T05:30:21.699Z,4.78
2017-09-30T05:32:47.939Z,5.62
2017-09-30T05:35:14.252Z,5.75
2017-09-30T05:37:40.595Z,5.28
2017-09-30T05:40:07.553Z,6.15
2017-09-30T05:42:33.784Z,5.65
2017-09-30T05:45:00.244Z,6.30
2017-09-30T05:47:26.570Z,5.18
2017-09-30T05:49:52.904Z,4.90
2017-09-30T05:52:19.315Z,5.18
2017-09-30T05:54:45.821Z,5.68
2017-09-30T05:57:12.169Z,4.78
2017-09-30T05:59:38.552Z,5.30
2017-09-30T06:02:05.154Z,4.18
2017-09-30T06:04:32.166Z,5.15
2017-09-30T06:06:59.385Z,7.20
2017-09-30T06:09:26.033Z,5.87
2017-09-30T06:11:52.319Z,4.70
2017-09-30T06:14:18.650Z,5.22
2017-09-30T06:16:45.000Z,5.47
2017-09-30T06:19:11.312Z,4.90
2017-09-30T06:21:37.547Z,5.37
2017-09-30T06:24:03.886Z,6.75
2017-09-30T06:26:30.318Z,5.07
2017-09-30T06:28:57.059Z,5.75
2017-09-30T06:31:23.493Z,4.75
2017-09-30T06:33:50.168Z,4.50
2017-09-30T06:36:16.770Z,3.62
2017-09-30T06:38:43.758Z,4.85
2017-09-30T06:41:10.053Z,4.72
2017-09-30T06:43:36.685Z,6.57
2017-09-30T06:46:03.014Z,4.32
2017-09-30T06:48:29.928Z,4.50
2017-09-30T06:50:56.724Z,3.80
2017-09-30T06:53:23.133Z,5.47
2017-09-30T06:55:49.578Z,5.05
2017-09-30T06:58:16.018Z,4.50
2017-09-30T07:00:42.391Z,5.65
2017-09-30T07:03:08.674Z,6.25
2017-09-30T07:05:35.512Z,4.93
2017-09-30T07:08:01.897Z,5.40
2017-09-30T07:10:28.307Z,4.68
2017-09-30T07:12:54.717Z,4.20
2017-09-30T07:15:21.177Z,5.10
2017-09-30T07:17:47.483Z,5.20
2017-09-30T07:20:13.822Z,4.60
2017-09-30T07:22:40.271Z,6.15
2017-09-30T07:25:06.602Z,5.75
2017-09-30T07:27:32.912Z,4.50
2017-09-30T07:29:59.562Z,4.93
2017-09-30T07:32:26.010Z,4.82
2017-09-30T07:34:52.340Z,3.35
2017-09-30T07:37:18.770Z,4.12
2017-09-30T07:39:45.395Z,5.35
2017-09-30T07:42:11.837Z,3.75
2017-09-30T07:44:38.151Z,4.25
2017-09-30T07:47:04.593Z,4.32
2017-09-30T07:49:31.048Z,5.53
2017-09-30T07:51:57.258Z,5.55
2017-09-30T07:54:23.696Z,5.85
2017-09-30T07:56:50.137Z,4.57
2017-09-30T07:59:16.767Z,5.07
2017-09-30T08:01:43.971Z,4.75
2017-09-30T08:04:12.158Z,6.53
2017-09-30T08:06:38.440Z,4.68
2017-09-30T08:09:04.962Z,5.55
2017-09-30T08:11:31.547Z,4.57
2017-09-30T08:13:58.243Z,2.58
2017-09-30T08:16:24.922Z,5.20
2017-09-30T08:18:51.276Z,5.78
2017-09-30T08:21:17.574Z,4.57
2017-09-30T08:23:43.988Z,4.78
2017-09-30T08:26:10.440Z,4.43
2017-09-30T08:28:36.632Z,5.12
2017-09-30T08:31:03.077Z,4.87
2017-09-30T08:33:29.408Z,4.22
2017-09-30T08:35:55.744Z,5.03
2017-09-30T08:38:22.005Z,4.68
2017-09-30T08:40:48.411Z,4.18
2017-09-30T08:43:14.817Z,4.43
2017-09-30T08:45:41.004Z,5.93
2017-09-30T08:48:07.185Z,4.05
2017-09-30T08:50:33.437Z,4.28
2017-09-30T08:52:59.890Z,4.15
2017-09-30T08:55:26.194Z,4.40
2017-09-30T08:57:53.574Z,4.87
2017-09-30T09:00:19.890Z,4.00
2017-09-30T09:02:46.424Z,4.20
2017-09-30T09:05:12.659Z,3.50
2017-09-30T09:07:38.947Z,4.82
2017-09-30T09:10:05.204Z,4.25
2017-09-30T09:12:31.738Z,5.15
2017-09-30T09:14:58.201Z,3.70
2017-09-30T09:17:24.871Z,3.97
2017-09-30T09:19:51.152Z,3.92
2017-09-30T09:22:17.595Z,3.78
2017-09-30T09:24:44.447Z,4.50
2017-09-30T09:27:11.304Z,3.62
2017-09-30T09:29:37.934Z,4.28
2017-09-30T09:32:04.569Z,4.00
2017-09-30T09:34:31.064Z,3.22
2017-09-30T09:36:58.748Z,4.50
2017-09-30T09:39:24.997Z,3.65
2017-09-30T09:41:51.322Z,4.75
2017-09-30T09:44:17.758Z,4.25
2017-09-30T09:46:44.023Z,4.47
2017-09-30T09:49:10.726Z,4.55
2017-09-30T09:51:37.270Z,3.60
2017-09-30T09:54:03.893Z,4.35
2017-09-30T09:56:30.342Z,3.25
2017-09-30T09:58:56.660Z,4.28
2017-09-30T10:01:22.919Z,4.70
2017-09-30T10:03:49.151Z,5.15
2017-09-30T10:06:15.562Z,4.93
2017-09-30T10:08:42.053Z,5.12
2017-09-30T10:11:08.344Z,5.07
2017-09-30T10:13:34.876Z,4.22
2017-09-30T10:16:01.315Z,4.00
2017-09-30T10:18:27.792Z,4.07
2017-09-30T10:20:54.177Z,4.85
2017-09-30T10:23:20.532Z,4.72
2017-09-30T10:25:46.930Z,5.37
2017-09-30T10:28:13.838Z,4.12
2017-09-30T10:30:40.117Z,4.68
2017-09-30T10:33:06.352Z,4.60
2017-09-30T10:35:32.727Z,4.75
2017-09-30T10:37:59.286Z,4.25
2017-09-30T10:40:25.540Z,4.72
2017-09-30T10:42:51.973Z,4.30
2017-09-30T10:45:18.446Z,3.75
2017-09-30T10:47:45.157Z,4.47
2017-09-30T10:50:11.475Z,4.00
2017-09-30T10:52:38.090Z,4.18
2017-09-30T10:55:04.365Z,5.30
2017-09-30T10:57:30.694Z,4.90
2017-09-30T10:59:56.930Z,4.70
2017-09-30T11:02:23.356Z,4.32
2017-09-30T11:04:49.594Z,3.60
2017-09-30T11:07:16.256Z,4.87
2017-09-30T11:09:42.711Z,4.55
2017-09-30T11:12:09.510Z,4.15
2017-09-30T11:14:35.986Z,3.50
2017-09-30T11:17:02.367Z,4.15
2017-09-30T11:19:28.595Z,4.15
2017-09-30T11:21:54.912Z,5.03
2017-09-30T11:24:21.576Z,4.80
2017-09-30T11:26:48.214Z,3.30
2017-09-30T11:29:14.552Z,3.83
2017-09-30T11:31:41.179Z,4.03
2017-09-30T11:34:07.719Z,5.15
2017-09-30T11:36:34.144Z,4.12
2017-09-30T11:39:00.387Z,5.35
2017-09-30T11:41:26.806Z,4.00
2017-09-30T11:43:53.137Z,4.00
2017-09-30T11:46:19.611Z,4.00
2017-09-30T11:48:46.308Z,4.90
2017-09-30T11:51:12.674Z,4.65
2017-09-30T11:53:38.980Z,3.70
2017-09-30T11:56:05.237Z,4.75
2017-09-30T11:58:31.688Z,4.68
2017-09-30T12:00:58.124Z,3.33
2017-09-30T12:03:24.830Z,5.37
2017-09-30T12:05:51.065Z,5.15
2017-09-30T12:08:17.507Z,4.57
2017-09-30T12:10:43.844Z,3.75
2017-09-30T12:13:10.305Z,4.43
2017-09-30T12:15:36.582Z,4.55
2017-09-30T12:18:03.006Z,4.20
2017-09-30T12:20:29.673Z,4.90
2017-09-30T12:22:55.907Z,5.62
2017-09-30T12:25:22.260Z,4.45
2017-09-30T12:27:48.615Z,4.40
2017-09-30T12:30:15.336Z,5.62
2017-09-30T12:32:41.531Z,4.07
2017-09-30T12:35:08.153Z,4.40
2017-09-30T12:37:34.500Z,4.82
2017-09-30T12:40:00.873Z,4.20
2017-09-30T12:42:27.045Z,4.90
2017-09-30T12:44:53.435Z,3.25
2017-09-30T12:47:19.784Z,5.20
2017-09-30T12:49:46.174Z,4.30
2017-09-30T12:52:12.836Z,4.72
2017-09-30T12:54:39.578Z,5.00
2017-09-30T12:57:05.891Z,4.25
2017-09-30T12:59:32.780Z,4.65
2017-09-30T13:01:59.576Z,4.78
2017-09-30T13:04:25.822Z,5.37
2017-09-30T13:06:52.785Z,5.28
2017-09-30T13:09:19.125Z,5.30
2017-09-30T13:11:45.404Z,4.57
2017-09-30T13:14:11.768Z,4.32
2017-09-30T13:16:38.095Z,4.90
2017-09-30T13:19:05.011Z,4.50
2017-09-30T13:21:31.937Z,4.90
2017-09-30T13:23:58.370Z,4.93
2017-09-30T13:26:24.702Z,3.62
2017-09-30T13:28:51.040Z,5.05
2017-09-30T13:31:17.447Z,5.05
2017-09-30T13:33:43.816Z,4.35
2017-09-30T13:36:10.127Z,4.18
2017-09-30T13:38:37.097Z,5.18
2017-09-30T13:41:03.641Z,5.57
2017-09-30T13:43:30.191Z,6.78
2017-09-30T13:45:56.887Z,5.70
2017-09-30T13:48:23.145Z,4.57
2017-09-30T13:50:49.570Z,5.20
2017-09-30T13:53:15.732Z,5.60
2017-09-30T13:55:42.220Z,5.45
2017-09-30T13:58:09.485Z,5.25
2017-09-30T14:00:35.794Z,5.55
2017-09-30T14:03:02.794Z,6.65
2017-09-30T14:05:29.098Z,5.10
2017-09-30T14:07:55.362Z,5.20
2017-09-30T14:10:21.586Z,5.18
2017-09-30T14:12:47.905Z,5.93
2017-09-30T14:15:14.162Z,5.35
2017-09-30T14:17:40.486Z,6.20
2017-09-30T14:20:06.848Z,6.43
2017-09-30T14:22:33.236Z,6.15
2017-09-30T14:24:59.493Z,5.70
2017-09-30T14:27:26.234Z,5.47
2017-09-30T14:29:52.577Z,4.55
2017-09-30T14:32:18.794Z,4.53
2017-09-30T14:34:44.986Z,5.35
2017-09-30T14:37:11.211Z,5.25
2017-09-30T14:39:37.526Z,4.68
2017-09-30T14:42:03.888Z,6.05
2017-09-30T14:44:30.127Z,5.60
2017-09-30T14:46:56.520Z,5.93
2017-09-30T14:49:22.886Z,6.53
2017-09-30T14:51:49.427Z,6.82
2017-09-30T14:54:15.641Z,5.15
2017-09-30T14:56:42.394Z,6.35
2017-09-30T14:59:08.743Z,5.00
2017-09-30T15:01:35.198Z,6.87
2017-09-30T15:04:01.600Z,5.32
2017-09-30T15:06:27.864Z,5.82
2017-09-30T15:08:54.324Z,7.35
2017-09-30T15:11:20.730Z,5.80
2017-09-30T15:13:47.151Z,7.28
2017-09-30T15:16:13.586Z,6.60
2017-09-30T15:18:40.003Z,5.97
2017-09-30T15:21:06.356Z,5.78
2017-09-30T15:23:32.788Z,7.72
2017-09-30T15:25:59.291Z,6.45
2017-09-30T15:28:26.133Z,6.40
2017-09-30T15:30:52.376Z,6.50
2017-09-30T15:33:19.130Z,6.15
2017-09-30T15:35:45.353Z,5.47
2017-09-30T15:38:11.689Z,5.30
2017-09-30T15:40:38.361Z,4.37
2017-09-30T15:43:04.754Z,7.20
2017-09-30T15:45:31.257Z,6.95
2017-09-30T15:47:57.509Z,4.87
2017-09-30T15:50:23.954Z,7.93
2017-09-30T15:52:50.279Z,6.55
2017-09-30T15:55:16.715Z,7.22
2017-09-30T15:57:43.045Z,7.18
2017-09-30T16:00:09.915Z,6.82
2017-09-30T16:02:36.228Z,7.12
2017-09-30T16:05:02.870Z,6.45
2017-09-30T16:07:29.183Z,6.53
2017-09-30T16:09:55.559Z,5.30
2017-09-30T16:12:21.984Z,4.78
2017-09-30T16:14:48.389Z,6.53
2017-09-30T16:17:14.622Z,5.90
2017-09-30T16:19:41.182Z,5.18
2017-09-30T16:22:07.396Z,6.35
2017-09-30T16:24:33.723Z,6.53
2017-09-30T16:27:00.155Z,6.75
2017-09-30T16:29:26.388Z,6.47
2017-09-30T16:31:53.027Z,6.28
2017-09-30T16:34:19.344Z,6.75
2017-09-30T16:36:45.499Z,5.20
2017-09-30T16:39:11.816Z,4.87
2017-09-30T16:41:38.351Z,5.62
2017-09-30T16:44:04.578Z,6.95
2017-09-30T16:46:30.842Z,6.12
2017-09-30T16:48:57.275Z,5.95
2017-09-30T16:51:23.700Z,6.72
2017-09-30T16:53:49.911Z,7.03
2017-09-30T16:56:16.302Z,5.85
2017-09-30T16:58:42.586Z,7.18
2017-09-30T17:01:08.910Z,5.60
2017-09-30T17:03:35.348Z,7.62
2017-09-30T17:06:01.760Z,5.70
2017-09-30T17:08:27.943Z,6.45
2017-09-30T17:10:54.223Z,6.15
2017-09-30T17:13:20.464Z,7.40
2017-09-30T17:15:46.770Z,6.60
2017-09-30T17:18:13.349Z,6.28
2017-09-30T17:20:39.668Z,5.12
2017-09-30T17:23:06.000Z,6.20
2017-09-30T17:25:32.359Z,6.03
2017-09-30T17:27:58.559Z,6.45
2017-09-30T17:30:24.791Z,7.93
2017-09-30T17:32:51.423Z,6.95
2017-09-30T17:35:17.711Z,6.47
2017-09-30T17:37:44.137Z,5.28
2017-09-30T17:40:10.517Z,5.30
2017-09-30T17:42:36.779Z,5.70
2017-09-30T17:45:03.192Z,5.18
2017-09-30T17:47:29.435Z,6.68
2017-09-30T17:49:55.878Z,6.28
2017-09-30T17:52:22.346Z,7.00
2017-09-30T17:54:48.739Z,4.45
2017-09-30T17:57:15.281Z,5.78
2017-09-30T17:59:41.717Z,5.40
2017-09-30T18:02:08.158Z,6.65
2017-09-30T18:04:34.502Z,6.68
2017-09-30T18:07:00.911Z,5.10
2017-09-30T18:09:27.175Z,5.37
2017-09-30T18:11:53.697Z,5.32
2017-09-30T18:14:20.427Z,3.33
2017-09-30T18:16:47.684Z,5.25
2017-09-30T18:19:14.410Z,5.40
2017-09-30T18:21:40.957Z,5.80
2017-09-30T18:24:07.301Z,7.22
2017-09-30T18:26:33.543Z,4.87
2017-09-30T18:29:00.103Z,6.85
2017-09-30T18:31:27.028Z,7.18
2017-09-30T18:33:53.351Z,5.62
2017-09-30T18:36:19.870Z,5.62
2017-09-30T18:38:47.033Z,6.32
2017-09-30T18:41:13.350Z,5.55
2017-09-30T18:43:39.876Z,6.65
2017-09-30T18:46:06.132Z,5.30
2017-09-30T18:48:33.190Z,5.87
2017-09-30T18:50:59.620Z,5.87
2017-09-30T18:53:25.980Z,6.80
2017-09-30T18:55:52.285Z,5.87
2017-09-30T18:58:18.625Z,5.28
2017-09-30T19:00:44.865Z,5.18
2017-09-30T19:03:11.282Z,5.25
2017-09-30T19:05:37.446Z,5.82
2017-09-30T19:08:03.666Z,4.95
2017-09-30T19:10:29.934Z,4.20
2017-09-30T19:12:56.578Z,5.85
2017-09-30T19:15:22.959Z,5.43
2017-09-30T19:17:49.345Z,5.05
2017-09-30T19:20:15.593Z,6.05
2017-09-30T19:22:42.053Z,7.35
2017-09-30T19:25:08.341Z,6.20
2017-09-30T19:27:35.153Z,6.55
2017-09-30T19:30:01.517Z,6.00
2017-09-30T19:32:28.266Z,7.03
2017-09-30T19:34:54.588Z,5.90
2017-09-30T19:37:20.871Z,6.62
2017-09-30T19:39:47.155Z,7.18
2017-09-30T19:42:14.032Z,7.47
2017-09-30T19:44:40.235Z,6.50
2017-09-30T19:47:06.436Z,6.97
2017-09-30T19:49:32.701Z,6.07
2017-09-30T19:51:58.887Z,6.60
2017-09-30T19:54:25.152Z,8.05
2017-09-30T19:56:51.393Z,6.43
2017-09-30T19:59:17.834Z,6.85
2017-09-30T20:01:44.038Z,6.25
2017-09-30T20:04:10.292Z,7.65
2017-09-30T20:06:36.483Z,6.05
2017-09-30T20:09:02.844Z,6.05
2017-09-30T20:11:29.188Z,8.52
2017-09-30T20:13:55.407Z,8.93
2017-09-30T20:16:21.594Z,5.62
2017-09-30T20:18:47.911Z,7.90
2017-09-30T20:21:14.328Z,5.97
2017-09-30T20:23:40.730Z,5.22
2017-09-30T20:26:06.953Z,7.30
2017-09-30T20:28:33.591Z,7.37
2017-09-30T20:30:59.911Z,7.00
2017-09-30T20:33:26.686Z,5.90
2017-09-30T20:35:53.127Z,5.97
2017-09-30T20:38:19.662Z,6.05
2017-09-30T20:40:45.989Z,6.03
2017-09-30T20:43:12.201Z,6.32
2017-09-30T20:45:38.535Z,7.15
2017-09-30T20:48:04.761Z,5.68
2017-09-30T20:50:31.097Z,7.55
2017-09-30T20:52:57.636Z,5.60
2017-09-30T20:55:24.168Z,7.57
2017-09-30T20:57:50.419Z,7.82
2017-09-30T21:00:16.693Z,5.03
2017-09-30T21:02:43.056Z,5.25
2017-09-30T21:05:09.398Z,6.28
2017-09-30T21:07:35.818Z,3.70
2017-09-30T21:10:02.481Z,5.40
2017-09-30T21:12:29.097Z,5.05
2017-09-30T21:14:55.436Z,4.80
2017-09-30T21:17:21.895Z,5.00
2017-09-30T21:19:48.220Z,6.30
2017-09-30T21:22:14.444Z,4.82
2017-09-30T21:24:40.878Z,3.70
2017-09-30T21:27:07.214Z,4.10
2017-09-30T21:29:33.420Z,4.32
2017-09-30T21:31:59.980Z,6.12
2017-09-30T21:34:26.404Z,4.15
2017-09-30T21:36:53.137Z,4.87
2017-09-30T21:39:19.313Z,4.55
2017-09-30T21:41:46.004Z,3.95
2017-09-30T21:44:12.352Z,6.30
2017-09-30T21:46:38.685Z,5.43
2017-09-30T21:49:05.223Z,6.55
2017-09-30T21:51:31.644Z,6.90
2017-09-30T21:53:57.867Z,6.87
2017-09-30T21:56:24.208Z,5.90
2017-09-30T21:58:50.532Z,6.60
2017-09-30T22:01:16.768Z,6.80
2017-09-30T22:03:42.991Z,6.78
2017-09-30T22:06:09.537Z,6.05
2017-09-30T22:08:36.594Z,7.15
2017-09-30T22:11:02.908Z,8.82
2017-09-30T22:13:29.564Z,6.05
2017-09-30T22:15:56.083Z,8.00
2017-09-30T22:18:22.323Z,6.22
2017-09-30T22:20:48.650Z,7.68
2017-09-30T22:23:15.093Z,6.65
2017-09-30T22:25:41.435Z,7.90
2017-09-30T22:28:07.861Z,7.15
2017-09-30T22:30:34.190Z,5.57
2017-09-30T22:33:00.515Z,6.07
2017-09-30T22:35:26.844Z,7.00
2017-09-30T22:37:53.286Z,5.32
2017-09-30T22:40:19.514Z,4.93
2017-09-30T22:42:45.846Z,5.20
2017-09-30T22:45:12.187Z,8.07
2017-09-30T22:47:38.502Z,6.45
2017-09-30T22:50:04.848Z,6.15
2017-09-30T22:52:31.575Z,7.50
2017-09-30T22:54:57.918Z,7.50
2017-09-30T22:57:24.231Z,8.18
2017-09-30T22:59:50.465Z,6.70
2017-09-30T23:02:16.924Z,6.70
2017-09-30T23:04:43.462Z,7.03
2017-09-30T23:07:09.888Z,7.35
2017-09-30T23:09:36.429Z,7.35
2017-09-30T23:12:02.877Z,4.70
2017-09-30T23:14:29.085Z,6.00
2017-09-30T23:16:55.631Z,6.68
2017-09-30T23:19:21.953Z,5.18
2017-09-30T23:21:48.193Z,7.25
2017-09-30T23:24:14.534Z,6.70
2017-09-30T23:26:40.861Z,6.45
2017-09-30T23:29:07.290Z,7.35
2017-09-30T23:31:33.615Z,7.10
2017-09-30T23:33:59.950Z,5.43
2017-09-30T23:36:26.262Z,4.50
2017-09-30T23:38:52.713Z,5.37
2017-09-30T23:41:19.153Z,5.53
2017-09-30T23:43:45.461Z,5.50
2017-09-30T23:46:12.127Z,6.72
2017-09-30T23:48:38.552Z,7.90
2017-09-30T23:51:04.893Z,6.15
2017-09-30T23:53:31.229Z,7.82
2017-09-30T23:55:57.545Z,3.58
2017-09-30T23:58:23.756Z,5.47
